sensor_id;sensor_type;location;lat;lon;timestamp;pressure;altitude;pressure_sealevel;temperature;humidity
36380;BME280;22411;53.016;18.632;2023-08-12T00:01:50;101288.09;;;14.62;100.00
36380;BME280;22411;53.016;18.632;2023-08-12T00:04:16;101290.72;;;14.62;100.00
36380;BME280;22411;53.016;18.632;2023-08-12T00:06:42;101287.16;;;14.63;100.00
36380;BME280;22411;53.016;18.632;2023-08-12T00:09:09;101286.19;;;14.64;100.00
36380;BME280;22411;53.016;18.632;2023-08-12T00:11:38;101289.63;;;14.65;100.00
36380;BME280;22411;53.016;18.632;2023-08-12T00:14:04;101294.53;;;14.70;100.00
36380;BME280;22411;53.016;18.632;2023-08-12T00:16:30;101293.06;;;14.65;100.00
36380;BME280;22411;53.016;18.632;2023-08-12T00:18:55;101280.38;;;14.61;100.00
36380;BME280;22411;53.016;18.632;2023-08-12T00:21:21;101290.41;;;14.54;100.00
36380;BME280;22411;53.016;18.632;2023-08-12T00:23:47;101288.13;;;14.50;100.00
36380;BME280;22411;53.016;18.632;2023-08-12T00:26:15;101295.25;;;14.48;100.00
36380;BME280;22411;53.016;18.632;2023-08-12T00:28:41;101290.88;;;14.48;100.00
36380;BME280;22411;53.016;18.632;2023-08-12T00:31:07;101285.66;;;14.48;100.00
36380;BME280;22411;53.016;18.632;2023-08-12T00:33:33;101289.28;;;14.46;100.00
36380;BME280;22411;53.016;18.632;2023-08-12T00:35:58;101287.50;;;14.46;100.00
36380;BME280;22411;53.016;18.632;2023-08-12T00:38:24;101284.81;;;14.48;100.00
36380;BME280;22411;53.016;18.632;2023-08-12T00:40:50;101289.09;;;14.49;100.00
36380;BME280;22411;53.016;18.632;2023-08-12T00:43:16;101279.59;;;14.48;100.00
36380;BME280;22411;53.016;18.632;2023-08-12T00:45:42;101283.25;;;14.45;100.00
36380;BME280;22411;53.016;18.632;2023-08-12T00:48:08;101287.97;;;14.40;100.00
36380;BME280;22411;53.016;18.632;2023-08-12T00:50:36;101288.88;;;14.39;100.00
36380;BME280;22411;53.016;18.632;2023-08-12T00:53:02;101293.59;;;14.34;100.00
36380;BME280;22411;53.016;18.632;2023-08-12T00:55:28;101291.34;;;14.29;100.00
36380;BME280;22411;53.016;18.632;2023-08-12T00:57:53;101289.06;;;14.25;100.00
36380;BME280;22411;53.016;18.632;2023-08-12T01:00:19;101289.38;;;14.20;100.00
36380;BME280;22411;53.016;18.632;2023-08-12T01:02:46;101295.63;;;14.18;100.00
36380;BME280;22411;53.016;18.632;2023-08-12T01:05:14;101292.19;;;14.17;100.00
36380;BME280;22411;53.016;18.632;2023-08-12T01:07:42;101293.75;;;14.20;100.00
36380;BME280;22411;53.016;18.632;2023-08-12T01:10:08;101290.41;;;14.18;100.00
36380;BME280;22411;53.016;18.632;2023-08-12T01:13:42;101293.03;;;14.18;100.00
36380;BME280;22411;53.016;18.632;2023-08-12T01:15:49;101292.09;;;14.19;100.00
36380;BME280;22411;53.016;18.632;2023-08-12T01:18:17;101294.72;;;14.19;100.00
36380;BME280;22411;53.016;18.632;2023-08-12T01:20:44;101292.44;;;14.14;100.00
36380;BME280;22411;53.016;18.632;2023-08-12T01:23:11;101290.25;;;14.08;100.00
36380;BME280;22411;53.016;18.632;2023-08-12T01:25:39;101290.66;;;14.02;100.00
36380;BME280;22411;53.016;18.632;2023-08-12T01:28:05;101300.25;;;14.01;100.00
36380;BME280;22411;53.016;18.632;2023-08-12T01:30:33;101294.03;;;14.04;100.00
36380;BME280;22411;53.016;18.632;2023-08-12T01:33:10;101298.28;;;14.05;100.00
36380;BME280;22411;53.016;18.632;2023-08-12T01:35:41;101299.94;;;14.06;100.00
36380;BME280;22411;53.016;18.632;2023-08-12T01:38:10;101302.56;;;14.06;100.00
36380;BME280;22411;53.016;18.632;2023-08-12T01:40:38;101290.78;;;14.00;100.00
36380;BME280;22411;53.016;18.632;2023-08-12T01:43:05;101293.50;;;13.99;100.00
36380;BME280;22411;53.016;18.632;2023-08-12T01:45:34;101296.75;;;13.90;100.00
36380;BME280;22411;53.016;18.632;2023-08-12T01:47:59;101292.81;;;13.84;100.00
36380;BME280;22411;53.016;18.632;2023-08-12T01:50:25;101283.31;;;13.83;100.00
36380;BME280;22411;53.016;18.632;2023-08-12T01:52:51;101284.34;;;13.80;100.00
36380;BME280;22411;53.016;18.632;2023-08-12T01:55:17;101286.25;;;13.78;100.00
36380;BME280;22411;53.016;18.632;2023-08-12T01:57:43;101278.31;;;13.80;100.00
36380;BME280;22411;53.016;18.632;2023-08-12T02:00:09;101279.88;;;13.82;100.00
36380;BME280;22411;53.016;18.632;2023-08-12T02:02:34;101277.59;;;13.78;100.00
36380;BME280;22411;53.016;18.632;2023-08-12T02:05:00;101282.06;;;13.76;100.00
36380;BME280;22411;53.016;18.632;2023-08-12T02:07:25;101276.97;;;13.74;100.00
36380;BME280;22411;53.016;18.632;2023-08-12T02:09:51;101278.94;;;13.71;100.00
36380;BME280;22411;53.016;18.632;2023-08-12T02:12:17;101275.34;;;13.60;100.00
36380;BME280;22411;53.016;18.632;2023-08-12T02:14:43;101264.47;;;13.54;100.00
36380;BME280;22411;53.016;18.632;2023-08-12T02:17:08;101266.69;;;13.47;100.00
36380;BME280;22411;53.016;18.632;2023-08-12T02:19:34;101262.84;;;13.40;100.00
36380;BME280;22411;53.016;18.632;2023-08-12T02:22:01;101272.50;;;13.38;100.00
36380;BME280;22411;53.016;18.632;2023-08-12T02:24:29;101271.78;;;13.36;100.00
36380;BME280;22411;53.016;18.632;2023-08-12T02:26:55;101272.75;;;13.35;100.00
36380;BME280;22411;53.016;18.632;2023-08-12T02:29:20;101270.44;;;13.30;100.00
36380;BME280;22411;53.016;18.632;2023-08-12T02:31:46;101274.81;;;13.30;100.00
36380;BME280;22411;53.016;18.632;2023-08-12T02:34:12;101267.84;;;13.30;100.00
36380;BME280;22411;53.016;18.632;2023-08-12T02:36:37;101280.09;;;13.28;100.00
36380;BME280;22411;53.016;18.632;2023-08-12T02:39:03;101279.09;;;13.31;100.00
36380;BME280;22411;53.016;18.632;2023-08-12T02:41:30;101282.63;;;13.30;100.00
36380;BME280;22411;53.016;18.632;2023-08-12T02:43:56;101280.22;;;13.27;100.00
36380;BME280;22411;53.016;18.632;2023-08-12T02:46:22;101281.28;;;13.24;100.00
36380;BME280;22411;53.016;18.632;2023-08-12T02:48:47;101282.50;;;13.19;100.00
36380;BME280;22411;53.016;18.632;2023-08-12T02:51:13;101283.31;;;13.19;100.00
36380;BME280;22411;53.016;18.632;2023-08-12T02:53:39;101291.13;;;13.19;100.00
36380;BME280;22411;53.016;18.632;2023-08-12T02:56:05;101285.16;;;13.17;100.00
36380;BME280;22411;53.016;18.632;2023-08-12T02:58:31;101283.72;;;13.13;100.00
36380;BME280;22411;53.016;18.632;2023-08-12T03:00:56;101284.88;;;13.09;100.00
36380;BME280;22411;53.016;18.632;2023-08-12T03:03:22;101289.31;;;13.07;100.00
36380;BME280;22411;53.016;18.632;2023-08-12T03:05:48;101287.56;;;13.07;100.00
36380;BME280;22411;53.016;18.632;2023-08-12T03:08:14;101284.22;;;13.05;100.00
36380;BME280;22411;53.016;18.632;2023-08-12T03:10:41;101287.88;;;13.03;100.00
36380;BME280;22411;53.016;18.632;2023-08-12T03:13:07;101280.91;;;13.03;100.00
36380;BME280;22411;53.016;18.632;2023-08-12T03:15:32;101279.97;;;13.04;100.00
36380;BME280;22411;53.016;18.632;2023-08-12T03:17:58;101270.28;;;13.06;100.00
36380;BME280;22411;53.016;18.632;2023-08-12T03:20:24;101276.53;;;13.04;100.00
36380;BME280;22411;53.016;18.632;2023-08-12T03:22:49;101286.81;;;13.05;100.00
36380;BME280;22411;53.016;18.632;2023-08-12T03:25:15;101285.88;;;13.06;100.00
36380;BME280;22411;53.016;18.632;2023-08-12T03:27:41;101281.31;;;13.10;100.00
36380;BME280;22411;53.016;18.632;2023-08-12T03:30:07;101289.84;;;13.12;100.00
36380;BME280;22411;53.016;18.632;2023-08-12T03:32:33;101290.59;;;13.14;100.00
36380;BME280;22411;53.016;18.632;2023-08-12T03:34:59;101298.00;;;13.20;100.00
36380;BME280;22411;53.016;18.632;2023-08-12T03:37:25;101299.56;;;13.23;100.00
36380;BME280;22411;53.016;18.632;2023-08-12T03:39:51;101297.72;;;13.25;100.00
36380;BME280;22411;53.016;18.632;2023-08-12T03:42:18;101294.06;;;13.27;100.00
36380;BME280;22411;53.016;18.632;2023-08-12T03:44:44;101294.69;;;13.31;100.00
36380;BME280;22411;53.016;18.632;2023-08-12T03:47:10;101292.72;;;13.34;100.00
36380;BME280;22411;53.016;18.632;2023-08-12T03:49:37;101287.00;;;13.29;100.00
36380;BME280;22411;53.016;18.632;2023-08-12T03:52:03;101282.81;;;13.27;100.00
36380;BME280;22411;53.016;18.632;2023-08-12T03:54:30;101291.47;;;13.27;100.00
36380;BME280;22411;53.016;18.632;2023-08-12T03:56:55;101289.91;;;13.25;100.00
36380;BME280;22411;53.016;18.632;2023-08-12T03:59:21;101294.19;;;13.26;100.00
36380;BME280;22411;53.016;18.632;2023-08-12T04:01:47;101287.84;;;13.30;100.00
36380;BME280;22411;53.016;18.632;2023-08-12T04:04:13;101296.88;;;13.37;100.00
36380;BME280;22411;53.016;18.632;2023-08-12T04:06:38;101303.44;;;13.43;100.00
36380;BME280;22411;53.016;18.632;2023-08-12T04:09:04;101298.75;;;13.48;100.00
36380;BME280;22411;53.016;18.632;2023-08-12T04:11:30;101291.34;;;13.54;100.00
36380;BME280;22411;53.016;18.632;2023-08-12T04:13:56;101292.00;;;13.58;100.00
36380;BME280;22411;53.016;18.632;2023-08-12T04:16:21;101294.28;;;13.63;100.00
36380;BME280;22411;53.016;18.632;2023-08-12T04:18:47;101293.84;;;13.69;100.00
36380;BME280;22411;53.016;18.632;2023-08-12T04:21:13;101287.69;;;13.70;100.00
36380;BME280;22411;53.016;18.632;2023-08-12T04:23:39;101287.28;;;13.76;100.00
36380;BME280;22411;53.016;18.632;2023-08-12T04:26:05;101288.72;;;13.80;100.00
36380;BME280;22411;53.016;18.632;2023-08-12T04:28:31;101290.06;;;13.85;100.00
36380;BME280;22411;53.016;18.632;2023-08-12T04:30:56;101295.81;;;13.91;100.00
36380;BME280;22411;53.016;18.632;2023-08-12T04:33:23;101284.94;;;13.97;100.00
36380;BME280;22411;53.016;18.632;2023-08-12T04:35:48;101284.75;;;14.00;100.00
36380;BME280;22411;53.016;18.632;2023-08-12T04:38:14;101296.31;;;14.08;100.00
36380;BME280;22411;53.016;18.632;2023-08-12T04:40:41;101289.72;;;14.16;100.00
36380;BME280;22411;53.016;18.632;2023-08-12T04:43:08;101292.44;;;14.14;100.00
36380;BME280;22411;53.016;18.632;2023-08-12T04:45:33;101284.69;;;14.12;100.00
36380;BME280;22411;53.016;18.632;2023-08-12T04:47:59;101282.00;;;14.14;100.00
36380;BME280;22411;53.016;18.632;2023-08-12T04:50:29;101290.41;;;14.18;100.00
36380;BME280;22411;53.016;18.632;2023-08-12T04:52:56;101284.06;;;14.22;100.00
36380;BME280;22411;53.016;18.632;2023-08-12T04:55:21;101288.31;;;14.23;100.00
36380;BME280;22411;53.016;18.632;2023-08-12T04:57:47;101291.75;;;14.23;100.00
36380;BME280;22411;53.016;18.632;2023-08-12T05:00:13;101288.31;;;14.23;100.00
36380;BME280;22411;53.016;18.632;2023-08-12T05:02:40;101273.28;;;14.26;100.00
36380;BME280;22411;53.016;18.632;2023-08-12T05:05:06;101286.97;;;14.30;100.00
36380;BME280;22411;53.016;18.632;2023-08-12T05:07:31;101283.28;;;14.32;100.00
36380;BME280;22411;53.016;18.632;2023-08-12T05:09:59;101285.19;;;14.30;100.00
36380;BME280;22411;53.016;18.632;2023-08-12T05:12:25;101293.72;;;14.32;100.00
36380;BME280;22411;53.016;18.632;2023-08-12T05:14:50;101285.56;;;14.37;100.00
36380;BME280;22411;53.016;18.632;2023-08-12T05:17:16;101280.22;;;14.38;100.00
36380;BME280;22411;53.016;18.632;2023-08-12T05:19:42;101286.91;;;14.43;100.00
36380;BME280;22411;53.016;18.632;2023-08-12T05:22:07;101283.25;;;14.45;100.00
36380;BME280;22411;53.016;18.632;2023-08-12T05:24:33;101283.78;;;14.50;100.00
36380;BME280;22411;53.016;18.632;2023-08-12T05:26:59;101279.97;;;14.54;100.00
36380;BME280;22411;53.016;18.632;2023-08-12T05:29:24;101274.31;;;14.60;100.00
36380;BME280;22411;53.016;18.632;2023-08-12T05:31:50;101273.16;;;14.64;100.00
36380;BME280;22411;53.016;18.632;2023-08-12T05:34:16;101273.56;;;14.71;100.00
36380;BME280;22411;53.016;18.632;2023-08-12T05:36:42;101274.88;;;14.77;100.00
36380;BME280;22411;53.016;18.632;2023-08-12T05:39:07;101268.13;;;14.85;100.00
36380;BME280;22411;53.016;18.632;2023-08-12T05:41:33;101276.44;;;14.90;100.00
36380;BME280;22411;53.016;18.632;2023-08-12T05:43:59;101278.72;;;14.95;100.00
36380;BME280;22411;53.016;18.632;2023-08-12T05:46:25;101275.78;;;15.00;100.00
36380;BME280;22411;53.016;18.632;2023-08-12T05:48:50;101278.03;;;15.04;100.00
36380;BME280;22411;53.016;18.632;2023-08-12T05:51:16;101279.09;;;15.13;100.00
36380;BME280;22411;53.016;18.632;2023-08-12T05:53:41;101284.59;;;15.21;100.00
36380;BME280;22411;53.016;18.632;2023-08-12T05:56:07;101278.69;;;15.30;100.00
36380;BME280;22411;53.016;18.632;2023-08-12T05:58:33;101281.53;;;15.38;100.00
36380;BME280;22411;53.016;18.632;2023-08-12T06:00:59;101281.06;;;15.44;100.00
36380;BME280;22411;53.016;18.632;2023-08-12T06:03:24;101283.81;;;15.54;100.00
36380;BME280;22411;53.016;18.632;2023-08-12T06:05:50;101281.44;;;15.62;100.00
36380;BME280;22411;53.016;18.632;2023-08-12T06:08:15;101284.09;;;15.74;100.00
36380;BME280;22411;53.016;18.632;2023-08-12T06:10:41;101284.31;;;15.82;100.00
36380;BME280;22411;53.016;18.632;2023-08-12T06:13:07;101287.28;;;15.88;100.00
36380;BME280;22411;53.016;18.632;2023-08-12T06:15:33;101282.16;;;15.98;100.00
36380;BME280;22411;53.016;18.632;2023-08-12T06:17:59;101280.59;;;16.07;100.00
36380;BME280;22411;53.016;18.632;2023-08-12T06:20:25;101269.53;;;16.14;100.00
36380;BME280;22411;53.016;18.632;2023-08-12T06:22:51;101273.91;;;16.25;100.00
36380;BME280;22411;53.016;18.632;2023-08-12T06:25:18;101277.47;;;16.35;100.00
36380;BME280;22411;53.016;18.632;2023-08-12T06:27:44;101279.19;;;16.46;100.00
36380;BME280;22411;53.016;18.632;2023-08-12T06:30:11;101278.34;;;16.57;100.00
36380;BME280;22411;53.016;18.632;2023-08-12T06:32:37;101266.03;;;16.68;100.00
36380;BME280;22411;53.016;18.632;2023-08-12T06:35:03;101277.16;;;16.82;100.00
36380;BME280;22411;53.016;18.632;2023-08-12T06:37:29;101277.69;;;16.96;100.00
36380;BME280;22411;53.016;18.632;2023-08-12T06:39:55;101282.75;;;17.09;100.00
36380;BME280;22411;53.016;18.632;2023-08-12T06:42:21;101275.66;;;17.21;100.00
36380;BME280;22411;53.016;18.632;2023-08-12T06:44:54;101271.00;;;17.34;100.00
36380;BME280;22411;53.016;18.632;2023-08-12T06:47:20;101266.41;;;17.47;100.00
36380;BME280;22411;53.016;18.632;2023-08-12T06:49:46;101275.72;;;17.61;100.00
36380;BME280;22411;53.016;18.632;2023-08-12T06:52:12;101266.69;;;17.75;100.00
36380;BME280;22411;53.016;18.632;2023-08-12T06:54:38;101277.78;;;17.88;100.00
36380;BME280;22411;53.016;18.632;2023-08-12T06:57:03;101271.31;;;18.02;100.00
36380;BME280;22411;53.016;18.632;2023-08-12T06:59:29;101271.75;;;18.17;100.00
36380;BME280;22411;53.016;18.632;2023-08-12T07:01:55;101266.13;;;18.31;100.00
36380;BME280;22411;53.016;18.632;2023-08-12T07:04:21;101270.00;;;18.46;100.00
36380;BME280;22411;53.016;18.632;2023-08-12T07:06:46;101266.84;;;18.62;100.00
36380;BME280;22411;53.016;18.632;2023-08-12T07:09:12;101267.81;;;18.80;100.00
36380;BME280;22411;53.016;18.632;2023-08-12T07:11:38;101274.13;;;18.97;100.00
36380;BME280;22411;53.016;18.632;2023-08-12T07:14:04;101271.22;;;19.10;100.00
36380;BME280;22411;53.016;18.632;2023-08-12T07:16:30;101272.44;;;19.25;100.00
36380;BME280;22411;53.016;18.632;2023-08-12T07:18:55;101280.66;;;19.40;100.00
36380;BME280;22411;53.016;18.632;2023-08-12T07:21:21;101274.94;;;19.54;100.00
36380;BME280;22411;53.016;18.632;2023-08-12T07:23:47;101274.13;;;19.64;100.00
36380;BME280;22411;53.016;18.632;2023-08-12T07:26:12;101278.53;;;19.73;100.00
36380;BME280;22411;53.016;18.632;2023-08-12T07:28:38;101267.94;;;19.82;100.00
36380;BME280;22411;53.016;18.632;2023-08-12T07:31:04;101269.41;;;19.95;100.00
36380;BME280;22411;53.016;18.632;2023-08-12T07:33:30;101273.03;;;20.11;100.00
36380;BME280;22411;53.016;18.632;2023-08-12T07:35:55;101268.91;;;20.27;100.00
36380;BME280;22411;53.016;18.632;2023-08-12T07:38:21;101269.06;;;20.43;100.00
36380;BME280;22411;53.016;18.632;2023-08-12T07:40:48;101274.84;;;20.56;100.00
36380;BME280;22411;53.016;18.632;2023-08-12T07:43:14;101270.16;;;20.68;100.00
36380;BME280;22411;53.016;18.632;2023-08-12T07:45:40;101267.66;;;20.84;100.00
36380;BME280;22411;53.016;18.632;2023-08-12T07:48:06;101278.97;;;21.03;100.00
36380;BME280;22411;53.016;18.632;2023-08-12T07:50:31;101273.13;;;21.17;100.00
36380;BME280;22411;53.016;18.632;2023-08-12T07:52:57;101264.81;;;21.30;100.00
36380;BME280;22411;53.016;18.632;2023-08-12T07:55:23;101271.63;;;21.40;100.00
36380;BME280;22411;53.016;18.632;2023-08-12T07:57:49;101270.88;;;21.48;100.00
36380;BME280;22411;53.016;18.632;2023-08-12T08:00:14;101262.03;;;21.57;100.00
36380;BME280;22411;53.016;18.632;2023-08-12T08:02:40;101262.50;;;21.61;100.00
36380;BME280;22411;53.016;18.632;2023-08-12T08:05:06;101258.41;;;21.66;100.00
36380;BME280;22411;53.016;18.632;2023-08-12T08:07:32;101263.75;;;21.83;100.00
36380;BME280;22411;53.016;18.632;2023-08-12T08:09:58;101246.16;;;22.00;100.00
36380;BME280;22411;53.016;18.632;2023-08-12T08:12:24;101240.78;;;22.17;100.00
36380;BME280;22411;53.016;18.632;2023-08-12T08:14:49;101247.91;;;22.33;100.00
36380;BME280;22411;53.016;18.632;2023-08-12T08:17:15;101250.03;;;22.46;99.98
36380;BME280;22411;53.016;18.632;2023-08-12T08:19:41;101239.31;;;22.56;95.71
36380;BME280;22411;53.016;18.632;2023-08-12T08:22:06;101230.72;;;22.62;94.78
36380;BME280;22411;53.016;18.632;2023-08-12T08:24:32;101223.44;;;22.72;94.63
36380;BME280;22411;53.016;18.632;2023-08-12T08:26:58;101233.22;;;22.80;90.98
36380;BME280;22411;53.016;18.632;2023-08-12T08:29:24;101235.03;;;22.79;88.39
36380;BME280;22411;53.016;18.632;2023-08-12T08:31:50;101234.53;;;22.84;92.51
36380;BME280;22411;53.016;18.632;2023-08-12T08:34:16;101227.75;;;23.06;92.09
36380;BME280;22411;53.016;18.632;2023-08-12T08:36:42;101222.41;;;23.14;88.06
36380;BME280;22411;53.016;18.632;2023-08-12T08:39:08;101227.50;;;23.23;85.87
36380;BME280;22411;53.016;18.632;2023-08-12T08:41:38;101224.47;;;23.43;77.47
36380;BME280;22411;53.016;18.632;2023-08-12T08:44:07;101212.56;;;23.47;88.03
36380;BME280;22411;53.016;18.632;2023-08-12T08:46:33;101213.53;;;23.54;82.60
36380;BME280;22411;53.016;18.632;2023-08-12T08:48:59;101227.88;;;23.68;75.07
36380;BME280;22411;53.016;18.632;2023-08-12T08:51:29;101226.88;;;23.69;78.79
36380;BME280;22411;53.016;18.632;2023-08-12T08:53:56;101229.53;;;23.69;73.23
36380;BME280;22411;53.016;18.632;2023-08-12T08:56:23;101227.63;;;23.78;79.08
36380;BME280;22411;53.016;18.632;2023-08-12T08:58:48;101233.84;;;23.93;73.20
36380;BME280;22411;53.016;18.632;2023-08-12T09:01:15;101232.28;;;24.07;77.98
36380;BME280;22411;53.016;18.632;2023-08-12T09:03:43;101226.91;;;24.15;70.91
36380;BME280;22411;53.016;18.632;2023-08-12T09:06:09;101223.09;;;24.17;75.80
36380;BME280;22411;53.016;18.632;2023-08-12T09:08:36;101226.69;;;24.24;70.31
36380;BME280;22411;53.016;18.632;2023-08-12T09:11:03;101221.22;;;24.26;72.00
36380;BME280;22411;53.016;18.632;2023-08-12T09:13:29;101221.75;;;24.44;72.70
36380;BME280;22411;53.016;18.632;2023-08-12T09:15:55;101218.25;;;24.67;70.48
36380;BME280;22411;53.016;18.632;2023-08-12T09:18:21;101226.78;;;24.92;65.42
36380;BME280;22411;53.016;18.632;2023-08-12T09:20:51;101224.97;;;24.92;64.17
36380;BME280;22411;53.016;18.632;2023-08-12T09:23:16;101226.34;;;25.03;67.49
36380;BME280;22411;53.016;18.632;2023-08-12T09:25:44;101211.38;;;25.25;62.30
36380;BME280;22411;53.016;18.632;2023-08-12T09:28:10;101211.09;;;25.35;60.52
36380;BME280;22411;53.016;18.632;2023-08-12T09:30:37;101204.06;;;25.27;61.72
36380;BME280;22411;53.016;18.632;2023-08-12T09:33:05;101200.13;;;25.23;62.94
36380;BME280;22411;53.016;18.632;2023-08-12T09:35:37;101199.91;;;25.54;64.48
36380;BME280;22411;53.016;18.632;2023-08-12T09:38:07;101208.66;;;25.84;61.56
36380;BME280;22411;53.016;18.632;2023-08-12T09:40:35;101194.22;;;26.15;64.71
36380;BME280;22411;53.016;18.632;2023-08-12T09:43:01;101199.09;;;26.32;59.33
36380;BME280;22411;53.016;18.632;2023-08-12T09:45:27;101191.94;;;26.54;60.45
36380;BME280;22411;53.016;18.632;2023-08-12T09:47:54;101194.84;;;26.59;61.37
36380;BME280;22411;53.016;18.632;2023-08-12T09:50:23;101180.44;;;26.75;60.35
36380;BME280;22411;53.016;18.632;2023-08-12T09:52:51;101191.19;;;26.95;54.77
36380;BME280;22411;53.016;18.632;2023-08-12T09:55:20;101192.66;;;27.04;54.35
36380;BME280;22411;53.016;18.632;2023-08-12T09:57:51;101185.03;;;27.23;56.10
36380;BME280;22411;53.016;18.632;2023-08-12T10:00:21;101182.75;;;27.20;54.86
36380;BME280;22411;53.016;18.632;2023-08-12T10:02:50;101179.59;;;27.44;55.22
36380;BME280;22411;53.016;18.632;2023-08-12T10:05:35;101174.13;;;27.66;52.26
36380;BME280;22411;53.016;18.632;2023-08-12T10:08:02;101179.09;;;27.88;49.56
36380;BME280;22411;53.016;18.632;2023-08-12T10:10:30;101181.13;;;27.73;49.78
36380;BME280;22411;53.016;18.632;2023-08-12T10:12:57;101179.19;;;27.47;48.58
36380;BME280;22411;53.016;18.632;2023-08-12T10:15:24;101174.25;;;27.44;51.56
36380;BME280;22411;53.016;18.632;2023-08-12T10:17:51;101172.66;;;27.56;47.39
36380;BME280;22411;53.016;18.632;2023-08-12T10:20:23;101165.09;;;27.53;48.79
36380;BME280;22411;53.016;18.632;2023-08-12T10:22:50;101169.53;;;27.46;47.65
36380;BME280;22411;53.016;18.632;2023-08-12T10:25:18;101171.94;;;27.28;47.47
36380;BME280;22411;53.016;18.632;2023-08-12T10:27:44;101163.97;;;27.28;51.36
36380;BME280;22411;53.016;18.632;2023-08-12T10:30:13;101162.00;;;27.50;49.20
36380;BME280;22411;53.016;18.632;2023-08-12T10:32:38;101160.66;;;27.74;44.81
36380;BME280;22411;53.016;18.632;2023-08-12T10:35:05;101151.50;;;27.42;47.25
36380;BME280;22411;53.016;18.632;2023-08-12T10:37:32;101159.31;;;27.43;48.00
36380;BME280;22411;53.016;18.632;2023-08-12T10:40:03;101152.44;;;27.69;47.44
36380;BME280;22411;53.016;18.632;2023-08-12T10:42:45;101145.94;;;27.98;45.49
36380;BME280;22411;53.016;18.632;2023-08-12T10:45:13;101153.72;;;28.26;45.23
36380;BME280;22411;53.016;18.632;2023-08-12T10:47:47;101145.53;;;28.54;45.02
36380;BME280;22411;53.016;18.632;2023-08-12T10:50:21;101144.59;;;28.93;42.58
36380;BME280;22411;53.016;18.632;2023-08-12T10:52:50;101151.25;;;28.71;42.14
36380;BME280;22411;53.016;18.632;2023-08-12T10:55:23;101141.00;;;28.61;42.96
36380;BME280;22411;53.016;18.632;2023-08-12T10:57:50;101141.16;;;28.73;43.66
36380;BME280;22411;53.016;18.632;2023-08-12T11:00:17;101144.81;;;28.98;39.48
36380;BME280;22411;53.016;18.632;2023-08-12T11:02:45;101152.19;;;29.03;39.51
36380;BME280;22411;53.016;18.632;2023-08-12T11:05:12;101146.41;;;29.12;42.18
36380;BME280;22411;53.016;18.632;2023-08-12T11:07:39;101137.03;;;28.97;39.91
36380;BME280;22411;53.016;18.632;2023-08-12T11:12:34;101137.41;;;29.07;42.15
36380;BME280;22411;53.016;18.632;2023-08-12T11:15:01;101125.13;;;28.99;41.73
36380;BME280;22411;53.016;18.632;2023-08-12T11:17:35;101133.31;;;29.04;41.74
36380;BME280;22411;53.016;18.632;2023-08-12T11:20:04;101129.31;;;29.27;40.53
36380;BME280;22411;53.016;18.632;2023-08-12T11:22:32;101129.56;;;29.18;39.02
36380;BME280;22411;53.016;18.632;2023-08-12T11:25:00;101121.38;;;29.13;41.26
36380;BME280;22411;53.016;18.632;2023-08-12T11:27:26;101113.03;;;28.90;40.79
36380;BME280;22411;53.016;18.632;2023-08-12T11:29:52;101108.34;;;29.30;41.13
36380;BME280;22411;53.016;18.632;2023-08-12T11:32:19;101105.75;;;29.87;40.14
36380;BME280;22411;53.016;18.632;2023-08-12T11:34:45;101107.88;;;30.28;39.25
36380;BME280;22411;53.016;18.632;2023-08-12T11:37:10;101107.38;;;30.56;35.72
36380;BME280;22411;53.016;18.632;2023-08-12T11:39:37;101104.81;;;30.00;35.80
36380;BME280;22411;53.016;18.632;2023-08-12T11:42:03;101095.72;;;29.82;39.08
36380;BME280;22411;53.016;18.632;2023-08-12T11:44:29;101092.56;;;29.92;39.29
36380;BME280;22411;53.016;18.632;2023-08-12T11:46:55;101090.91;;;30.16;38.62
36380;BME280;22411;53.016;18.632;2023-08-12T11:49:21;101086.28;;;30.30;37.81
36380;BME280;22411;53.016;18.632;2023-08-12T11:51:47;101078.56;;;30.58;35.79
36380;BME280;22411;53.016;18.632;2023-08-12T11:54:14;101075.19;;;30.69;36.34
36380;BME280;22411;53.016;18.632;2023-08-12T11:56:41;101065.88;;;30.54;35.77
36380;BME280;22411;53.016;18.632;2023-08-12T11:59:07;101065.41;;;30.20;38.24
36380;BME280;22411;53.016;18.632;2023-08-12T12:01:33;101060.88;;;30.39;36.67
36380;BME280;22411;53.016;18.632;2023-08-12T12:04:02;101071.19;;;30.35;35.29
36380;BME280;22411;53.016;18.632;2023-08-12T12:06:32;101061.94;;;30.38;33.95
36380;BME280;22411;53.016;18.632;2023-08-12T12:09:08;101065.78;;;30.42;35.44
36380;BME280;22411;53.016;18.632;2023-08-12T12:11:35;101056.63;;;30.31;36.92
36380;BME280;22411;53.016;18.632;2023-08-12T12:14:06;101054.72;;;30.38;37.63
36380;BME280;22411;53.016;18.632;2023-08-12T12:16:46;101062.00;;;30.50;35.17
36380;BME280;22411;53.016;18.632;2023-08-12T12:21:43;101055.78;;;30.37;36.93
36380;BME280;22411;53.016;18.632;2023-08-12T12:24:10;101062.22;;;30.66;35.71
36380;BME280;22411;53.016;18.632;2023-08-12T12:26:36;101058.13;;;31.01;35.06
36380;BME280;22411;53.016;18.632;2023-08-12T12:29:03;101060.22;;;31.29;34.85
36380;BME280;22411;53.016;18.632;2023-08-12T12:31:34;101049.31;;;31.42;34.30
36380;BME280;22411;53.016;18.632;2023-08-12T12:34:02;101048.50;;;31.41;34.31
36380;BME280;22411;53.016;18.632;2023-08-12T12:36:29;101059.81;;;31.43;33.29